Πλησιέστερες Αναφορές METAR

 

LGTS - Thessaloniki/Makedonia-Elev 7m
Distance from station: Ν 13km
Ενημερώθηκε: 23/05/2022 06:50
Αίθριος
Αίθριος
 Ανεμος από ΑΝΑ
Ανεμος: ΑΝΑ 9 km/h
Θερμοκρασία: 15°C
Σημείο Δρόσου: 13°C
Υγρασία: 88%
Βαρόμετρο: 1009 hPa
Συνθήκες: Αίθριος
Visibility: greater than 10 km
2022/05/23 03:50 LGTS 230350Z 12005KT CAVOK 15/13 Q1009 NOSIG
LGAV - Athens/Elef. Venizelos-Elev 94m
Distance from station: ΝΝΑ 312km
Ενημερώθηκε: 23/05/2022 06:50
Αίθριος
Αίθριος
 Ανεμος από calm
Ανεμος: Απνοια
Θερμοκρασία: 17°C
Σημείο Δρόσου: 10°C
Υγρασία: 64%
Βαρόμετρο: 1010 hPa
Συνθήκες: Αίθριος
Visibility: greater than 10 km
2022/05/23 03:50 LGAV 230350Z 00000KT CAVOK 17/10 Q1010 NOSIG
 
LGAL - Alexandroupolis-Elev 3m
Distance from station: Α 251km
Ενημερώθηκε: 23/05/2022 06:50
Αίθριος
Αίθριος
 Ανεμος από calm
Ανεμος: Απνοια
Θερμοκρασία: 15°C
Σημείο Δρόσου: 13°C
Υγρασία: 88%
Βαρόμετρο: 1008 hPa
Συνθήκες: Αίθριος
Visibility: greater than 10 km
2022/05/23 03:50 LGAL 230350Z 00000KT CAVOK 15/13 Q1008
LGKV - Kavala/Crysoupolis-Elev 5m
Distance from station: ΑΒΑ 144km
Ενημερώθηκε: 23/05/2022 06:50
Αίθριος
Αίθριος
 Ανεμος από calm
Ανεμος: Απνοια
Θερμοκρασία: 15°C
Σημείο Δρόσου: 13°C
Υγρασία: 88%
Βαρόμετρο: 1008 hPa
Συνθήκες: Αίθριος
Visibility: greater than 10 km
2022/05/23 03:50 LGKV 230350Z 00000KT CAVOK 15/13 Q1008
 
LGSK - Skiathos Island-Elev 15m
Distance from station: ΝΝΑ 168km
Ενημερώθηκε: 22/05/2022 22:20
Μη Ενημερωμένο!
Μερικώς νεφελώδης
Μερικώς νεφελώδης
 Ανεμος από varies
Ανεμος: varies 2 km/h
Θερμοκρασία: 24°C
Σημείο Δρόσου: 17°C
Υγρασία: 65%
Βαρόμετρο: 1008 hPa
Clouds: Μερικώς νεφελώδης
Visibility: 10 km
Cloud details: Few Clouds 549 m
Μερικώς νεφελώδης 914 m
2022/05/22 19:20 LGSK 221920Z VRB01KT 9999 FEW018 SCT030 24/17 Q1008
LGLM - Limnos Island-Elev 5m
Distance from station: ΑΝΑ 210km
Ενημερώθηκε: 23/05/2022 06:50
Few Clouds
Few Clouds
 Ανεμος από calm
Ανεμος: Απνοια
Θερμοκρασία: 17°C
Σημείο Δρόσου: 14°C
Υγρασία: 83%
Βαρόμετρο: 1008 hPa
Clouds: Few Clouds
Visibility: 10 km
Cloud details: Few Clouds 549 m
2022/05/23 03:50 LGLM 230350Z 00000KT 9999 FEW018 17/14 Q1008
 
LGMT - Mitilini Island-Elev 17m
Distance from station: ΑΝΑ 358km
Ενημερώθηκε: 23/05/2022 06:50
Μερικώς νεφελώδης
Μερικώς νεφελώδης
 Ανεμος από calm
Ανεμος: Απνοια
Θερμοκρασία: 17°C
Σημείο Δρόσου: 11°C
Υγρασία: 68%
Βαρόμετρο: 1008 hPa
Clouds: Μερικώς νεφελώδης
Visibility: 10 km
Cloud details: Μερικώς νεφελώδης 914 m
2022/05/23 03:50 LGMT 230350Z 00000KT 9999 SCT030 17/11 Q1008
LGSY - Skiros Island-Elev 15m
Distance from station: ΝΑ 227km
Ενημερώθηκε: 23/05/2022 06:50
Αίθριος
Αίθριος
 Ανεμος από Δ
Ανεμος: Δ 11 km/h
Θερμοκρασία: 21°C
Σημείο Δρόσου: 15°C
Υγρασία: 69%
Βαρόμετρο: 1009 hPa
Συνθήκες: Αίθριος
Visibility: greater than 10 km
2022/05/23 03:50 LGSY 230350Z 27006KT CAVOK 21/15 Q1009 RMK FEW080 FEW180 BLU
 
LGKZ - Kozani-Elev 628m
Distance from station: ΔΝΔ 102km
Ενημερώθηκε: 23/05/2022 06:50

 Ανεμος από varies
Ανεμος: varies 6 km/h
Θερμοκρασία: 13°C
Σημείο Δρόσου: 11°C
Υγρασία: 88%
Βαρόμετρο: 1013 hPa
2022/05/23 03:50 LGKZ 230350Z AUTO VRB03KT //// // ////// 13/11 Q1013 RE//
LGIO - Ioannina-Elev 476m
Distance from station: ΔΝΔ 209km
Ενημερώθηκε: 23/05/2022 06:50

 Ανεμος από varies
Ανεμος: varies 2 km/h
Θερμοκρασία: 11°C
Σημείο Δρόσου: 10°C
Υγρασία: 94%
Βαρόμετρο: 1013 hPa
2022/05/23 03:50 LGIO 230350Z AUTO VRB01KT //// // ////// 11/10 Q1013 RE//
 
LGZA - Zakinthos-Elev 3m
Distance from station: ΝΝΔ 367km
Ενημερώθηκε: 23/05/2022 06:50
Mist, Σχεδόν νεφελώδης
Mist, Σχεδόν νεφελώδης
 Ανεμος από calm
Ανεμος: Απνοια
Θερμοκρασία: 15°C
Σημείο Δρόσου: 15°C
Υγρασία: 100%
Βαρόμετρο: 1012 hPa
Συνθήκες: Mist
Clouds: Σχεδόν νεφελώδης
Visibility: 2 km
Cloud details: Σχεδόν νεφελώδης 152 m
2022/05/23 03:50 LGZA 230350Z 00000KT 2000 BR BKN005 15/15 Q1012
LGKR - Corfu Island-Elev 2m
Distance from station: ΔΝΔ 282km
Ενημερώθηκε: 23/05/2022 06:50
Μερικώς νεφελώδης
Μερικώς νεφελώδης
 Ανεμος από calm
Ανεμος: Απνοια
Θερμοκρασία: 17°C
Σημείο Δρόσου: 15°C
Υγρασία: 88%
Βαρόμετρο: 1010 hPa
Clouds: Μερικώς νεφελώδης
Visibility: 10 km
Cloud details: Few Clouds 244 m
Μερικώς νεφελώδης 549 m
2022/05/23 03:50 LGKR 230350Z 00000KT 9999 FEW008 SCT018 17/15 Q1010 NOSIG
 
LGSO - Syros Island-Elev 72m
Distance from station: ΝΝΑ 397km
Ενημερώθηκε: 23/05/2022 06:50

 Ανεμος από Δ
Ανεμος: Δ 7 km/h
Θερμοκρασία: 20°C
Σημείο Δρόσου: 14°C
Υγρασία: 69%
Βαρόμετρο: 1009 hPa
2022/05/23 03:50 LGSO 230350Z AUTO 26004KT //// // ////// 20/14 Q1009 RE//
LGMK - Mikonos Island-Elev 123m
Distance from station: ΝΝΑ 412km
Ενημερώθηκε: 23/05/2022 06:50
Αίθριος
Αίθριος
 Ανεμος από varies
Ανεμος: varies 6 km/h
Θερμοκρασία: 20°C
Σημείο Δρόσου: 12°C
Υγρασία: 60%
Βαρόμετρο: 1008 hPa
Συνθήκες: Αίθριος
Visibility: greater than 10 km
2022/05/23 03:50 LGMK 230350Z VRB03KT CAVOK 20/12 Q1008
 
LGSR - Santorini Island-Elev 40m
Distance from station: ΝΝΑ 520km
Ενημερώθηκε: 23/05/2022 06:50
Αίθριος
Αίθριος
 Ανεμος από calm
Ανεμος: Απνοια
Θερμοκρασία: 19°C
Σημείο Δρόσου: 16°C
Υγρασία: 83%
Βαρόμετρο: 1009 hPa
Συνθήκες: Αίθριος
Visibility: greater than 10 km
2022/05/23 03:50 LGSR 230350Z 00000KT CAVOK 19/16 Q1009
LGKL - Kalamata-Elev 8m
Distance from station: Ν 405km
Ενημερώθηκε: 23/05/2022 06:50
Αίθριος
Αίθριος
 Ανεμος από varies
Ανεμος: varies 6 km/h
Θερμοκρασία: 15°C
Σημείο Δρόσου: 14°C
Υγρασία: 94%
Βαρόμετρο: 1011 hPa
Συνθήκες: Αίθριος
Visibility: greater than 10 km
2022/05/23 03:50 LGKL 230350Z VRB03KT CAVOK 15/14 Q1011
 
LGIR - Iraklion/Crete-Elev 5m
Distance from station: ΝΝΑ 622km
Ενημερώθηκε: 23/05/2022 06:50
Αίθριος
Αίθριος
 Ανεμος από Ν
Ανεμος: Ν 17 km/h
Θερμοκρασία: 17°C
Σημείο Δρόσου: 6°C
Υγρασία: 49%
Βαρόμετρο: 1010 hPa
Συνθήκες: Αίθριος
Visibility: greater than 10 km
2022/05/23 03:50 LGIR 230350Z 17009KT CAVOK 17/06 Q1010 NOSIG
LGRP - Rhodes-Elev 5m
Distance from station: ΝΑ 649km
Ενημερώθηκε: 23/05/2022 06:50
Few Clouds
Few Clouds
 Ανεμος από ΝΔ
Ανεμος: ΝΔ 15 km/h
Θερμοκρασία: 20°C
Σημείο Δρόσου: 13°C
Υγρασία: 64%
Βαρόμετρο: 1007 hPa
Clouds: Few Clouds
Visibility: 10 km
Cloud details: Few Clouds 305 m
2022/05/23 03:50 LGRP 230350Z 22008KT 9999 FEW010 20/13 Q1007 NOSIG
 
LWOH - Ohrid/FYROM-Elev 761m
Distance from station: ΔΒΔ 188km
Ενημερώθηκε: 22/05/2022 22:00
Μη Ενημερωμένο!
Few Clouds
Few Clouds
 Ανεμος από ΒΔ
Ανεμος: ΒΔ 4 km/h
Θερμοκρασία: 18°C
Σημείο Δρόσου: 12°C
Υγρασία: 68%
Βαρόμετρο: 1013 hPa
Clouds: Few Clouds
Visibility: 10 km
Cloud details: Few Clouds 1219 m
2022/05/22 19:00 LWOH 221900Z 32002KT 9999 FEW040 18/12 Q1013
LBSF - Sofia/Bulgaria-Elev 595m
Distance from station: Β 227km
Ενημερώθηκε: 23/05/2022 07:00
Μερικώς νεφελώδης
Μερικώς νεφελώδης
 Ανεμος από varies
Ανεμος: varies 6 km/h
Θερμοκρασία: 12°C
Σημείο Δρόσου: 8°C
Υγρασία: 77%
Βαρόμετρο: 1012 hPa
Clouds: Μερικώς νεφελώδης
Visibility: 10 km
Cloud details: Μερικώς νεφελώδης 2195 m
2022/05/23 04:00 LBSF 230400Z VRB03KT 9999 SCT072 12/08 Q1012 NOSIG
Σημερινά ρεκόρ Μετεωρολογικού Σταθμού
Δεν έχει σημειωθεί νέο ρεκόρ μέχρι τις 07:17 σήμερα - 23/5/2022